South Kenner, Louisiana
Current Conditions -  °F | °C
As of 4:53 PM on Wednesday 17 Dec 2014 (Local Time) from KMSY Reporting Station
Broken Clouds Broken Clouds  
Wind Chill: 55°   Ceiling: 27000
Heat Index: 55°   Visibility: 10mi
Dew Point: 39°   Wind: 3mph
Humidity: 55%   Direction: 50°NE
Pressure: 30.19"   Gusts: NA
Location:  29.9137°N, 90.2078°W
Report Text: KMSY 172253Z 05003KT 10SM FEW200 BKN270 13/04 A3019 RMK AO2 SLP226 T01280039
Loading
Personal Weather Stations






























Interactive Weather Map New forecast layout! Learn more

10-Day Weather Forecast

Advertisements
Track Severe Weather on mobile